createdAt,value
2018-11-21T00:00:34.247Z,26.87
2018-11-21T00:03:02.555Z,25.93
2018-11-21T00:05:30.904Z,24.63
2018-11-21T00:07:59.553Z,25.40
2018-11-21T00:10:28.197Z,24.70
2018-11-21T00:12:57.447Z,25.27
2018-11-21T00:15:25.779Z,24.70
2018-11-21T00:17:54.137Z,22.67
2018-11-21T00:20:22.471Z,22.10
2018-11-21T00:22:50.805Z,21.73
2018-11-21T00:25:20.570Z,20.40
2018-11-21T00:27:48.937Z,20.17
2018-11-21T00:30:17.260Z,27.30
2018-11-21T00:32:45.572Z,26.63
2018-11-21T00:35:13.936Z,25.17
2018-11-21T00:37:42.496Z,24.90
2018-11-21T00:40:12.453Z,25.17
2018-11-21T00:42:46.758Z,25.70
2018-11-21T00:45:10.286Z,26.03
2018-11-21T00:47:38.570Z,26.37
2018-11-21T00:50:09.150Z,25.40
2018-11-21T00:52:37.664Z,24.67
2018-11-21T00:55:06.867Z,24.87
2018-11-21T00:57:37.515Z,25.10
2018-11-21T01:00:08.326Z,24.83
2018-11-21T01:02:36.708Z,24.73
2018-11-21T01:05:06.242Z,25.23
2018-11-21T01:07:34.554Z,24.23
2018-11-21T01:10:02.880Z,24.87
2018-11-21T01:12:32.181Z,23.90
2018-11-21T01:15:00.769Z,24.33
2018-11-21T01:17:29.098Z,23.70
2018-11-21T01:19:57.414Z,23.63
2018-11-21T01:22:26.008Z,20.97
2018-11-21T01:24:54.287Z,23.00
2018-11-21T01:27:23.204Z,23.30
2018-11-21T01:29:51.501Z,23.10
2018-11-21T01:32:19.833Z,23.73
2018-11-21T01:34:48.149Z,22.20
2018-11-21T01:37:16.463Z,21.90
2018-11-21T01:39:44.793Z,22.03
2018-11-21T01:42:15.984Z,20.40
2018-11-21T01:44:44.266Z,20.50
2018-11-21T01:47:12.587Z,20.30
2018-11-21T01:49:40.924Z,25.97
2018-11-21T01:52:09.230Z,24.90
2018-11-21T01:54:37.583Z,25.27
2018-11-21T01:57:06.056Z,26.47
2018-11-21T01:59:34.649Z,25.77
2018-11-21T02:02:02.979Z,25.60
2018-11-21T02:04:31.287Z,26.20
2018-11-21T02:06:59.644Z,25.73
2018-11-21T02:09:27.943Z,25.10
2018-11-21T02:11:56.300Z,25.77
2018-11-21T02:14:27.062Z,24.83
2018-11-21T02:16:55.370Z,26.33
2018-11-21T02:19:23.710Z,26.10
2018-11-21T02:21:52.002Z,20.77
2018-11-21T02:24:20.303Z,19.97
2018-11-21T02:26:49.514Z,18.87
2018-11-21T02:29:21.147Z,20.27
2018-11-21T02:31:49.466Z,19.50
2018-11-21T02:34:17.792Z,20.50
2018-11-21T02:36:46.086Z,21.37
2018-11-21T02:39:14.382Z,20.60
2018-11-21T02:41:42.714Z,19.53
2018-11-21T02:44:11.030Z,19.13
2018-11-21T02:46:39.678Z,19.77
2018-11-21T02:49:08.015Z,19.70
2018-11-21T02:51:36.302Z,17.93
2018-11-21T02:54:04.686Z,19.30
2018-11-21T02:57:09.843Z,18.87
2018-11-21T02:59:38.141Z,19.87
2018-11-21T03:02:06.446Z,21.10
2018-11-21T03:04:35.603Z,20.47
2018-11-21T03:07:03.921Z,20.83
2018-11-21T03:09:32.553Z,19.80
2018-11-21T03:12:00.903Z,18.93
2018-11-21T03:14:29.237Z,18.73
2018-11-21T03:16:57.551Z,19.63
2018-11-21T03:19:25.959Z,17.87
2018-11-21T03:21:54.310Z,19.30
2018-11-21T03:24:22.611Z,20.17
2018-11-21T03:26:51.964Z,18.87
2018-11-21T03:29:20.732Z,19.03
2018-11-21T03:31:49.053Z,19.13
2018-11-21T03:34:17.420Z,18.20
2018-11-21T03:36:49.730Z,19.97
2018-11-21T03:39:19.438Z,18.70
2018-11-21T03:41:47.946Z,20.13
2018-11-21T03:44:17.155Z,19.37
2018-11-21T03:46:47.054Z,20.30
2018-11-21T03:49:16.703Z,21.23
2018-11-21T03:51:45.144Z,20.33
2018-11-21T03:54:13.435Z,20.87
2018-11-21T03:56:42.011Z,20.53
2018-11-21T03:59:10.649Z,20.87
2018-11-21T04:01:39.284Z,20.43
2018-11-21T04:04:09.202Z,21.37
2018-11-21T04:06:37.552Z,21.77
2018-11-21T04:09:10.605Z,20.17
2018-11-21T04:11:38.999Z,20.57
2018-11-21T04:14:07.799Z,20.77
2018-11-21T04:16:36.178Z,20.77
2018-11-21T04:19:04.659Z,20.63
2018-11-21T04:21:32.981Z,27.47
2018-11-21T04:24:01.332Z,27.17
2018-11-21T04:26:29.640Z,28.47
2018-11-21T04:28:59.072Z,26.53
2018-11-21T04:31:27.467Z,27.13
2018-11-21T04:33:55.767Z,29.67
2018-11-21T04:36:25.901Z,28.70
2018-11-21T04:38:54.572Z,28.33
2018-11-21T04:41:22.872Z,28.77
2018-11-21T04:43:51.184Z,28.93
2018-11-21T04:46:19.488Z,29.23
2018-11-21T04:48:47.807Z,28.93
2018-11-21T04:51:16.091Z,28.87
2018-11-21T04:53:44.425Z,29.17
2018-11-21T04:56:12.772Z,29.70
2018-11-21T04:58:41.034Z,27.93
2018-11-21T05:01:12.168Z,28.93
2018-11-21T05:03:40.513Z,28.57
2018-11-21T05:06:09.132Z,24.43
2018-11-21T05:08:37.515Z,24.37
2018-11-21T05:11:06.388Z,22.97
2018-11-21T05:13:34.189Z,23.63
2018-11-21T05:16:02.845Z,23.73
2018-11-21T05:18:31.192Z,23.87
2018-11-21T05:20:59.542Z,23.43
2018-11-21T05:23:27.849Z,23.60
2018-11-21T05:25:56.215Z,23.93
2018-11-21T05:28:24.601Z,22.00
2018-11-21T05:30:52.933Z,23.40
2018-11-21T05:33:21.268Z,23.33
2018-11-21T05:35:49.568Z,23.83
2018-11-21T05:38:17.868Z,24.00
2018-11-21T05:40:46.173Z,23.33
2018-11-21T05:43:15.209Z,24.13
2018-11-21T05:45:43.465Z,22.50
2018-11-21T05:48:11.795Z,24.67
2018-11-21T05:50:40.235Z,25.67
2018-11-21T05:53:09.277Z,24.73
2018-11-21T05:55:39.820Z,24.67
2018-11-21T05:58:08.137Z,24.80
2018-11-21T06:00:36.428Z,25.57
2018-11-21T06:03:04.859Z,26.20
2018-11-21T06:05:33.448Z,23.20
2018-11-21T06:08:01.832Z,24.47
2018-11-21T06:10:30.438Z,25.13
2018-11-21T06:12:59.077Z,26.13
2018-11-21T06:15:27.392Z,26.70
2018-11-21T06:17:56.882Z,33.90
2018-11-21T06:20:25.218Z,39.23
2018-11-21T06:22:54.075Z,40.33
2018-11-21T06:25:22.450Z,40.07
2018-11-21T06:27:51.689Z,41.27
2018-11-21T06:30:20.286Z,40.13
2018-11-21T06:32:48.920Z,40.23
2018-11-21T06:35:17.274Z,43.27
2018-11-21T06:37:45.568Z,41.87
2018-11-21T06:40:15.377Z,42.13
2018-11-21T06:42:53.414Z,42.33
2018-11-21T06:45:22.794Z,30.07
2018-11-21T06:47:51.096Z,26.80
2018-11-21T06:50:19.695Z,27.90
2018-11-21T06:52:48.100Z,28.53
2018-11-21T06:55:17.237Z,26.83
2018-11-21T06:57:45.741Z,29.07
2018-11-21T07:00:14.089Z,28.87
2018-11-21T07:02:43.499Z,28.77
2018-11-21T07:05:12.629Z,30.70
2018-11-21T07:07:41.205Z,30.80
2018-11-21T07:10:12.419Z,30.20
2018-11-21T07:12:42.597Z,28.40
2018-11-21T07:15:10.897Z,28.60
2018-11-21T07:17:39.509Z,29.10
2018-11-21T07:20:10.291Z,29.90
2018-11-21T07:22:38.794Z,29.63
2018-11-21T07:25:16.073Z,27.30
2018-11-21T07:27:44.439Z,27.53
2018-11-21T07:30:14.147Z,29.60
2018-11-21T07:32:42.488Z,27.83
2018-11-21T07:35:14.638Z,28.97
2018-11-21T07:37:40.524Z,29.33
2018-11-21T07:40:10.519Z,30.03
2018-11-21T07:42:38.866Z,29.77
2018-11-21T07:45:11.986Z,29.63
2018-11-21T07:47:41.120Z,31.70
2018-11-21T07:50:12.286Z,32.47
2018-11-21T07:52:41.610Z,32.07
2018-11-21T07:55:10.664Z,33.80
2018-11-21T07:57:46.438Z,29.97
2018-11-21T08:00:44.578Z,32.53
2018-11-21T08:03:13.365Z,31.23
2018-11-21T08:05:44.436Z,34.00
2018-11-21T08:08:43.023Z,33.93
2018-11-21T08:11:38.173Z,32.47
2018-11-21T08:14:31.487Z,32.67
2018-11-21T08:17:21.701Z,30.70
2018-11-21T08:20:09.611Z,33.17
2018-11-21T08:22:54.773Z,32.93
2018-11-21T08:25:41.041Z,32.43
2018-11-21T08:28:37.839Z,33.10
2018-11-21T08:31:07.228Z,40.20
2018-11-21T08:33:35.543Z,43.83
2018-11-21T08:36:03.972Z,45.80
2018-11-21T08:38:32.309Z,43.50
2018-11-21T08:41:01.420Z,44.47
2018-11-21T08:43:29.737Z,43.70
2018-11-21T08:45:59.139Z,42.33
2018-11-21T08:48:27.849Z,41.90
2018-11-21T08:50:56.187Z,41.77
2018-11-21T08:53:25.083Z,39.07
2018-11-21T08:55:54.099Z,42.37
2018-11-21T08:58:22.448Z,43.83
2018-11-21T09:00:50.872Z,38.93
2018-11-21T09:03:19.246Z,40.40
2018-11-21T09:05:47.568Z,37.67
2018-11-21T09:08:15.870Z,38.73
2018-11-21T09:10:45.723Z,35.57
2018-11-21T09:13:14.437Z,35.07
2018-11-21T09:15:43.088Z,33.40
2018-11-21T09:18:13.320Z,34.27
2018-11-21T09:20:41.702Z,32.97
2018-11-21T09:23:11.121Z,32.17
2018-11-21T09:25:39.748Z,39.00
2018-11-21T09:28:08.113Z,39.70
2018-11-21T09:30:36.435Z,38.93
2018-11-21T09:33:07.042Z,32.77
2018-11-21T09:35:35.921Z,30.97
2018-11-21T09:38:04.264Z,32.13
2018-11-21T09:40:35.891Z,30.93
2018-11-21T09:43:04.560Z,30.17
2018-11-21T09:45:44.025Z,30.00
2018-11-21T09:48:13.115Z,28.03
2018-11-21T09:50:40.965Z,30.60
2018-11-21T09:53:09.663Z,29.13
2018-11-21T09:55:40.427Z,30.37
2018-11-21T09:58:06.630Z,29.60
2018-11-21T10:01:11.866Z,30.00
2018-11-21T10:03:40.697Z,28.73
2018-11-21T10:06:24.699Z,28.87
2018-11-21T10:09:20.878Z,28.77
2018-11-21T10:11:49.256Z,28.97
2018-11-21T10:14:17.603Z,28.93
2018-11-21T10:16:45.948Z,28.73
2018-11-21T10:19:15.091Z,27.73
2018-11-21T10:21:43.382Z,27.83
2018-11-21T10:24:11.736Z,29.00
2018-11-21T10:26:40.046Z,28.50
2018-11-21T10:29:08.368Z,28.80
2018-11-21T10:31:36.752Z,29.67
2018-11-21T10:34:08.193Z,27.57
2018-11-21T10:36:36.540Z,27.70
2018-11-21T10:39:07.669Z,27.70
2018-11-21T10:41:35.994Z,28.63
2018-11-21T10:44:04.295Z,27.90
2018-11-21T10:46:32.933Z,27.23
2018-11-21T10:49:01.949Z,26.43
2018-11-21T10:51:30.271Z,28.67
2018-11-21T10:53:58.615Z,26.67
2018-11-21T10:56:29.603Z,28.37
2018-11-21T10:59:02.149Z,27.73
2018-11-21T11:02:02.094Z,27.57
2018-11-21T11:04:37.845Z,25.50
2018-11-21T11:07:24.204Z,26.53
2018-11-21T11:10:12.762Z,27.60
2018-11-21T11:13:06.225Z,27.30
2018-11-21T11:15:51.915Z,27.73
2018-11-21T11:18:37.786Z,27.13
2018-11-21T11:21:28.369Z,26.00
2018-11-21T11:24:14.541Z,26.70
2018-11-21T11:27:00.616Z,27.80
2018-11-21T11:29:46.748Z,27.27
2018-11-21T11:32:25.739Z,26.80
2018-11-21T11:35:28.827Z,27.93
2018-11-21T11:38:28.662Z,26.23
2018-11-21T11:41:27.976Z,27.20
2018-11-21T11:44:21.453Z,27.07
2018-11-21T11:47:16.006Z,27.20
2018-11-21T11:50:06.483Z,26.87
2018-11-21T11:52:52.588Z,26.93
2018-11-21T11:55:58.196Z,26.53
2018-11-21T11:58:46.713Z,27.47
2018-11-21T12:01:42.290Z,27.37
2018-11-21T12:04:21.670Z,27.50
2018-11-21T12:07:02.435Z,25.90
2018-11-21T12:09:49.556Z,26.93
2018-11-21T12:12:40.069Z,25.77
2018-11-21T12:15:29.662Z,26.70
2018-11-21T12:18:17.833Z,28.47
2018-11-21T12:21:05.859Z,26.50
2018-11-21T12:24:00.545Z,27.33
2018-11-21T12:27:00.072Z,27.30
2018-11-21T12:29:46.677Z,28.20
2018-11-21T12:32:27.971Z,26.47
2018-11-21T12:35:16.497Z,27.43
2018-11-21T12:38:12.628Z,26.10
2018-11-21T12:40:54.126Z,27.57
2018-11-21T12:43:30.928Z,26.40
2018-11-21T12:46:19.939Z,26.10
2018-11-21T12:49:06.284Z,27.53
2018-11-21T12:51:52.450Z,28.10
2018-11-21T12:54:42.866Z,27.70
2018-11-21T12:57:29.571Z,27.10
2018-11-21T13:00:26.032Z,29.50
2018-11-21T13:03:23.336Z,27.07
2018-11-21T13:06:19.777Z,28.80
2018-11-21T13:08:55.491Z,27.63
2018-11-21T13:11:58.135Z,28.40
2018-11-21T13:14:44.588Z,28.13
2018-11-21T13:17:41.055Z,28.27
2018-11-21T13:20:30.056Z,28.07
2018-11-21T13:23:07.218Z,27.03
2018-11-21T13:26:00.456Z,28.80
2018-11-21T13:29:03.901Z,28.03
2018-11-21T13:31:58.012Z,28.20
2018-11-21T13:34:45.680Z,28.57
2018-11-21T13:37:35.701Z,27.17
2018-11-21T13:40:27.427Z,27.67
2018-11-21T13:43:30.253Z,27.03
2018-11-21T13:46:17.752Z,27.50
2018-11-21T13:49:04.150Z,27.60
2018-11-21T13:51:50.824Z,27.07
2018-11-21T13:54:41.418Z,27.17
2018-11-21T13:57:13.599Z,27.13
2018-11-21T13:59:49.225Z,27.33
2018-11-21T14:02:17.554Z,27.40
2018-11-21T14:04:48.160Z,28.30
2018-11-21T14:07:16.880Z,28.53
2018-11-21T14:09:45.252Z,27.17
2018-11-21T14:12:13.582Z,28.10
2018-11-21T14:14:41.941Z,27.13
2018-11-21T14:17:10.238Z,27.50
2018-11-21T14:19:38.525Z,27.00
2018-11-21T14:22:06.867Z,29.13
2018-11-21T14:24:35.987Z,28.10
2018-11-21T14:27:04.330Z,28.33
2018-11-21T14:29:32.664Z,27.07
2018-11-21T14:32:00.963Z,33.80
2018-11-21T14:34:30.613Z,34.40
2018-11-21T14:36:58.931Z,34.77
2018-11-21T14:39:27.227Z,35.47
2018-11-21T14:41:55.572Z,34.47
2018-11-21T14:44:23.885Z,34.27
2018-11-21T14:46:53.397Z,34.83
2018-11-21T14:49:21.791Z,36.53
2018-11-21T14:51:50.414Z,36.30
2018-11-21T14:54:26.364Z,35.80
2018-11-21T14:56:56.606Z,35.50
